Lee Center, Illinois
Current Conditions -  °F | °C
As of 1:15 PM on Friday 24 Oct 2014 (Local Time) from KRPJ Reporting Station
Clear Clear  
Wind Chill: 63°   Ceiling: Unl
Heat Index: 63°   Visibility: 10mi
Dew Point: 51°   Wind: 6mph
Humidity: 66%   Direction: 220°SW
Pressure: 30.02"   Gusts: NA
Location:  41.75°N, 89.28°W
Report Text: KRPJ 241815Z AUTO 22005KT 10SM CLR 17/11 A3002 RMK AO2 T01730108
Loading
Personal Weather Stations






























Interactive Weather Map
Tropical Storm Tracking
New forecast layout! Learn more

10-Day Weather Forecast

Advertisements
Track Severe Weather on mobile